sensor_id;sensor_type;location;lat;lon;timestamp;noise_LAeq;noise_LA_min;noise_LA_max;noise_LA01;noise_LA95
74496;Laerm;62979;55.720;37.606;2023-07-29T00:01:36;47.97;39.45;59.29;;
74496;Laerm;62979;55.720;37.606;2023-07-29T00:04:05;52.08;40.67;68.14;;
74496;Laerm;62979;55.720;37.606;2023-07-29T00:06:33;43.82;40.51;48.59;;
74496;Laerm;62979;55.720;37.606;2023-07-29T00:09:00;45.66;41.09;55.87;;
74496;Laerm;62979;55.720;37.606;2023-07-29T00:11:28;45.89;40.51;61.07;;
74496;Laerm;62979;55.720;37.606;2023-07-29T00:13:55;44.77;40.33;57.49;;
74496;Laerm;62979;55.720;37.606;2023-07-29T00:16:22;43.85;37.56;51.41;;
74496;Laerm;62979;55.720;37.606;2023-07-29T00:18:49;44.22;39.67;49.40;;
74496;Laerm;62979;55.720;37.606;2023-07-29T00:21:16;50.28;39.40;61.82;;
74496;Laerm;62979;55.720;37.606;2023-07-29T00:23:43;43.87;38.83;55.25;;
74496;Laerm;62979;55.720;37.606;2023-07-29T00:26:10;46.39;38.08;60.27;;
74496;Laerm;62979;55.720;37.606;2023-07-29T00:28:38;45.00;39.66;54.54;;
74496;Laerm;62979;55.720;37.606;2023-07-29T00:31:05;44.01;37.74;59.83;;
74496;Laerm;62979;55.720;37.606;2023-07-29T00:33:32;42.59;39.52;51.51;;
74496;Laerm;62979;55.720;37.606;2023-07-29T00:35:59;45.92;39.91;53.60;;
74496;Laerm;62979;55.720;37.606;2023-07-29T00:38:27;47.53;39.78;59.43;;
74496;Laerm;62979;55.720;37.606;2023-07-29T00:40:54;46.12;40.28;65.54;;
74496;Laerm;62979;55.720;37.606;2023-07-29T00:43:21;45.25;40.67;56.54;;
74496;Laerm;62979;55.720;37.606;2023-07-29T00:45:49;50.86;40.78;67.98;;
74496;Laerm;62979;55.720;37.606;2023-07-29T00:48:16;57.81;40.22;78.54;;
74496;Laerm;62979;55.720;37.606;2023-07-29T00:50:43;44.26;37.93;61.03;;
74496;Laerm;62979;55.720;37.606;2023-07-29T00:53:10;42.05;38.39;45.28;;
74496;Laerm;62979;55.720;37.606;2023-07-29T00:55:37;43.38;37.95;51.47;;
74496;Laerm;62979;55.720;37.606;2023-07-29T00:58:04;43.29;39.30;60.15;;
74496;Laerm;62979;55.720;37.606;2023-07-29T01:00:31;45.62;38.64;56.39;;
74496;Laerm;62979;55.720;37.606;2023-07-29T01:02:59;47.09;40.85;58.44;;
74496;Laerm;62979;55.720;37.606;2023-07-29T01:05:33;45.41;42.86;63.64;;
74496;Laerm;62979;55.720;37.606;2023-07-29T01:08:11;47.82;42.65;58.97;;
74496;Laerm;62979;55.720;37.606;2023-07-29T01:10:51;49.14;43.88;63.98;;
74496;Laerm;62979;55.720;37.606;2023-07-29T01:13:27;49.96;42.78;64.51;;
74496;Laerm;62979;55.720;37.606;2023-07-29T01:16:02;47.17;42.05;64.00;;
74496;Laerm;62979;55.720;37.606;2023-07-29T01:18:38;47.07;41.30;62.27;;
74496;Laerm;62979;55.720;37.606;2023-07-29T01:21:08;49.27;43.21;64.81;;
74496;Laerm;62979;55.720;37.606;2023-07-29T01:23:37;47.08;43.23;63.98;;
74496;Laerm;62979;55.720;37.606;2023-07-29T01:26:04;47.92;44.84;64.43;;
74496;Laerm;62979;55.720;37.606;2023-07-29T01:28:32;49.11;44.81;74.09;;
74496;Laerm;62979;55.720;37.606;2023-07-29T01:31:06;50.99;42.58;84.76;;
74496;Laerm;62979;55.720;37.606;2023-07-29T01:33:45;48.11;42.75;72.01;;
74496;Laerm;62979;55.720;37.606;2023-07-29T01:36:21;48.41;42.35;74.84;;
74496;Laerm;62979;55.720;37.606;2023-07-29T01:38:52;46.38;41.73;62.20;;
74496;Laerm;62979;55.720;37.606;2023-07-29T01:41:21;47.89;41.47;61.60;;
74496;Laerm;62979;55.720;37.606;2023-07-29T01:43:50;48.51;39.50;73.05;;
74496;Laerm;62979;55.720;37.606;2023-07-29T01:46:17;46.93;40.98;71.05;;
74496;Laerm;62979;55.720;37.606;2023-07-29T01:48:44;50.25;41.39;69.98;;
74496;Laerm;62979;55.720;37.606;2023-07-29T01:51:12;50.63;42.34;78.75;;
74496;Laerm;62979;55.720;37.606;2023-07-29T01:53:39;46.12;39.88;62.06;;
74496;Laerm;62979;55.720;37.606;2023-07-29T01:56:07;45.50;39.23;69.87;;
74496;Laerm;62979;55.720;37.606;2023-07-29T01:58:34;51.88;41.32;82.97;;
74496;Laerm;62979;55.720;37.606;2023-07-29T02:01:01;47.63;39.39;70.01;;
74496;Laerm;62979;55.720;37.606;2023-07-29T02:03:28;44.55;40.03;61.21;;
74496;Laerm;62979;55.720;37.606;2023-07-29T02:05:55;45.68;40.22;75.25;;
74496;Laerm;62979;55.720;37.606;2023-07-29T02:08:22;48.49;38.96;75.30;;
74496;Laerm;62979;55.720;37.606;2023-07-29T02:10:49;50.25;39.98;66.44;;
74496;Laerm;62979;55.720;37.606;2023-07-29T02:13:17;43.72;38.82;61.75;;
74496;Laerm;62979;55.720;37.606;2023-07-29T02:15:44;46.23;39.29;66.51;;
74496;Laerm;62979;55.720;37.606;2023-07-29T02:18:11;47.54;42.44;63.04;;
74496;Laerm;62979;55.720;37.606;2023-07-29T02:20:37;49.66;42.31;61.67;;
74496;Laerm;62979;55.720;37.606;2023-07-29T02:23:04;49.79;40.64;63.45;;
74496;Laerm;62979;55.720;37.606;2023-07-29T02:25:31;54.16;42.10;77.49;;
74496;Laerm;62979;55.720;37.606;2023-07-29T02:28:01;48.88;44.52;74.31;;
74496;Laerm;62979;55.720;37.606;2023-07-29T02:30:31;50.90;44.86;74.22;;
74496;Laerm;62979;55.720;37.606;2023-07-29T02:32:57;49.67;45.21;66.01;;
74496;Laerm;62979;55.720;37.606;2023-07-29T02:35:25;50.94;44.02;72.42;;
74496;Laerm;62979;55.720;37.606;2023-07-29T02:37:52;51.73;45.35;72.25;;
74496;Laerm;62979;55.720;37.606;2023-07-29T02:40:19;52.98;46.09;84.92;;
74496;Laerm;62979;55.720;37.606;2023-07-29T02:42:46;54.10;46.24;82.75;;
74496;Laerm;62979;55.720;37.606;2023-07-29T02:45:13;55.41;46.21;82.68;;
74496;Laerm;62979;55.720;37.606;2023-07-29T02:47:41;55.69;45.18;88.40;;
74496;Laerm;62979;55.720;37.606;2023-07-29T02:50:09;55.54;44.96;81.80;;
74496;Laerm;62979;55.720;37.606;2023-07-29T02:52:36;55.28;45.07;74.59;;
74496;Laerm;62979;55.720;37.606;2023-07-29T02:55:03;50.34;43.60;68.49;;
74496;Laerm;62979;55.720;37.606;2023-07-29T02:57:30;52.04;43.70;67.22;;
74496;Laerm;62979;55.720;37.606;2023-07-29T02:59:57;53.97;42.43;66.40;;
74496;Laerm;62979;55.720;37.606;2023-07-29T03:02:24;55.02;41.64;84.59;;
74496;Laerm;62979;55.720;37.606;2023-07-29T03:04:52;52.83;44.47;82.90;;
74496;Laerm;62979;55.720;37.606;2023-07-29T03:07:19;52.17;44.67;65.25;;
74496;Laerm;62979;55.720;37.606;2023-07-29T03:09:46;55.53;48.73;71.87;;
74496;Laerm;62979;55.720;37.606;2023-07-29T03:12:13;55.22;48.16;76.38;;
74496;Laerm;62979;55.720;37.606;2023-07-29T03:14:39;57.81;49.79;80.98;;
74496;Laerm;62979;55.720;37.606;2023-07-29T03:17:07;56.63;49.89;82.83;;
74496;Laerm;62979;55.720;37.606;2023-07-29T03:19:34;56.33;49.70;79.39;;
74496;Laerm;62979;55.720;37.606;2023-07-29T03:22:03;57.96;50.54;85.37;;
74496;Laerm;62979;55.720;37.606;2023-07-29T03:24:30;56.37;49.23;79.72;;
74496;Laerm;62979;55.720;37.606;2023-07-29T03:26:56;55.49;48.19;78.49;;
74496;Laerm;62979;55.720;37.606;2023-07-29T03:29:23;56.44;47.61;71.11;;
74496;Laerm;62979;55.720;37.606;2023-07-29T03:31:50;57.95;50.52;72.60;;
74496;Laerm;62979;55.720;37.606;2023-07-29T03:34:17;57.77;51.35;77.68;;
74496;Laerm;62979;55.720;37.606;2023-07-29T03:36:44;59.56;51.26;82.80;;
74496;Laerm;62979;55.720;37.606;2023-07-29T03:39:14;57.77;50.29;82.54;;
74496;Laerm;62979;55.720;37.606;2023-07-29T03:41:41;56.13;50.03;76.43;;
74496;Laerm;62979;55.720;37.606;2023-07-29T03:44:08;58.27;49.45;83.21;;
74496;Laerm;62979;55.720;37.606;2023-07-29T03:46:35;57.32;49.44;82.03;;
74496;Laerm;62979;55.720;37.606;2023-07-29T03:49:02;58.36;50.55;84.18;;
74496;Laerm;62979;55.720;37.606;2023-07-29T03:51:29;59.39;50.41;83.38;;
74496;Laerm;62979;55.720;37.606;2023-07-29T03:53:56;60.75;50.65;84.77;;
74496;Laerm;62979;55.720;37.606;2023-07-29T03:56:24;55.56;48.91;79.00;;
74496;Laerm;62979;55.720;37.606;2023-07-29T03:58:52;56.72;48.54;86.11;;
74496;Laerm;62979;55.720;37.606;2023-07-29T04:01:19;53.99;46.58;83.12;;
74496;Laerm;62979;55.720;37.606;2023-07-29T04:03:46;52.72;45.33;79.12;;
74496;Laerm;62979;55.720;37.606;2023-07-29T04:06:13;55.59;44.51;83.87;;
74496;Laerm;62979;55.720;37.606;2023-07-29T04:08:40;57.98;45.25;76.88;;
74496;Laerm;62979;55.720;37.606;2023-07-29T04:11:07;58.54;48.05;81.00;;
74496;Laerm;62979;55.720;37.606;2023-07-29T04:13:36;65.72;51.53;91.73;;
74496;Laerm;62979;55.720;37.606;2023-07-29T04:16:03;52.34;43.10;69.88;;
74496;Laerm;62979;55.720;37.606;2023-07-29T04:18:30;48.56;42.23;77.84;;
74496;Laerm;62979;55.720;37.606;2023-07-29T04:20:57;51.62;41.28;68.57;;
74496;Laerm;62979;55.720;37.606;2023-07-29T04:23:24;51.49;41.20;63.25;;
74496;Laerm;62979;55.720;37.606;2023-07-29T04:25:51;52.73;43.95;82.87;;
74496;Laerm;62979;55.720;37.606;2023-07-29T04:28:18;49.77;41.42;78.03;;
74496;Laerm;62979;55.720;37.606;2023-07-29T04:30:46;55.49;42.08;83.60;;
74496;Laerm;62979;55.720;37.606;2023-07-29T04:33:13;48.99;41.83;66.34;;
74496;Laerm;62979;55.720;37.606;2023-07-29T04:35:40;52.81;42.34;73.15;;
74496;Laerm;62979;55.720;37.606;2023-07-29T04:38:07;53.60;41.46;83.85;;
74496;Laerm;62979;55.720;37.606;2023-07-29T04:40:34;54.01;43.39;72.00;;
74496;Laerm;62979;55.720;37.606;2023-07-29T04:43:00;54.02;44.43;81.44;;
74496;Laerm;62979;55.720;37.606;2023-07-29T04:45:29;54.88;46.25;64.48;;
74496;Laerm;62979;55.720;37.606;2023-07-29T04:47:58;57.34;44.20;73.44;;
74496;Laerm;62979;55.720;37.606;2023-07-29T04:50:25;49.18;42.01;60.54;;
74496;Laerm;62979;55.720;37.606;2023-07-29T04:52:52;55.02;43.99;73.11;;
74496;Laerm;62979;55.720;37.606;2023-07-29T04:55:20;54.24;41.95;67.48;;
74496;Laerm;62979;55.720;37.606;2023-07-29T04:57:47;51.69;42.92;61.63;;
74496;Laerm;62979;55.720;37.606;2023-07-29T05:00:14;49.75;42.74;66.46;;
74496;Laerm;62979;55.720;37.606;2023-07-29T05:02:41;54.08;42.62;66.47;;
74496;Laerm;62979;55.720;37.606;2023-07-29T05:05:09;49.47;43.06;62.01;;
74496;Laerm;62979;55.720;37.606;2023-07-29T05:07:36;52.94;44.29;62.43;;
74496;Laerm;62979;55.720;37.606;2023-07-29T05:10:03;48.21;43.08;59.90;;
74496;Laerm;62979;55.720;37.606;2023-07-29T05:12:30;52.80;43.04;65.76;;
74496;Laerm;62979;55.720;37.606;2023-07-29T05:14:58;52.99;44.30;63.55;;
74496;Laerm;62979;55.720;37.606;2023-07-29T05:17:25;55.99;45.07;68.69;;
74496;Laerm;62979;55.720;37.606;2023-07-29T05:19:52;55.09;45.05;62.79;;
74496;Laerm;62979;55.720;37.606;2023-07-29T05:22:20;56.69;47.03;70.06;;
74496;Laerm;62979;55.720;37.606;2023-07-29T05:24:47;51.51;44.09;62.89;;
74496;Laerm;62979;55.720;37.606;2023-07-29T05:27:14;52.29;44.21;66.06;;
74496;Laerm;62979;55.720;37.606;2023-07-29T05:29:41;54.49;46.29;74.83;;
74496;Laerm;62979;55.720;37.606;2023-07-29T05:32:08;55.33;45.57;65.81;;
74496;Laerm;62979;55.720;37.606;2023-07-29T05:34:35;53.50;44.09;75.83;;
74496;Laerm;62979;55.720;37.606;2023-07-29T05:37:02;52.12;45.02;61.08;;
74496;Laerm;62979;55.720;37.606;2023-07-29T05:39:31;51.61;43.24;63.42;;
74496;Laerm;62979;55.720;37.606;2023-07-29T05:41:58;56.11;43.46;70.48;;
74496;Laerm;62979;55.720;37.606;2023-07-29T05:44:29;52.68;44.99;61.89;;
74496;Laerm;62979;55.720;37.606;2023-07-29T05:46:56;51.32;43.53;64.82;;
74496;Laerm;62979;55.720;37.606;2023-07-29T05:49:23;53.29;44.78;67.15;;
74496;Laerm;62979;55.720;37.606;2023-07-29T05:51:50;62.81;44.50;73.58;;
74496;Laerm;62979;55.720;37.606;2023-07-29T05:54:19;60.76;47.56;73.21;;
74496;Laerm;62979;55.720;37.606;2023-07-29T05:56:47;63.86;47.41;78.35;;
74496;Laerm;62979;55.720;37.606;2023-07-29T05:59:14;63.26;44.14;73.90;;
74496;Laerm;62979;55.720;37.606;2023-07-29T06:01:41;59.00;45.19;67.54;;
74496;Laerm;62979;55.720;37.606;2023-07-29T06:04:07;61.74;48.71;72.71;;
74496;Laerm;62979;55.720;37.606;2023-07-29T06:06:34;54.60;44.96;65.71;;
74496;Laerm;62979;55.720;37.606;2023-07-29T06:09:01;53.41;45.70;62.47;;
74496;Laerm;62979;55.720;37.606;2023-07-29T06:11:28;63.27;46.90;79.08;;
74496;Laerm;62979;55.720;37.606;2023-07-29T06:13:56;55.76;45.17;67.64;;
74496;Laerm;62979;55.720;37.606;2023-07-29T06:16:23;52.81;46.16;62.39;;
74496;Laerm;62979;55.720;37.606;2023-07-29T06:18:50;54.38;44.80;65.95;;
74496;Laerm;62979;55.720;37.606;2023-07-29T06:21:18;60.90;48.70;78.87;;
74496;Laerm;62979;55.720;37.606;2023-07-29T06:23:45;58.16;45.50;68.46;;
74496;Laerm;62979;55.720;37.606;2023-07-29T06:26:13;63.52;47.98;73.48;;
74496;Laerm;62979;55.720;37.606;2023-07-29T06:28:40;51.81;45.95;62.59;;
74496;Laerm;62979;55.720;37.606;2023-07-29T06:31:08;53.21;47.15;65.17;;
74496;Laerm;62979;55.720;37.606;2023-07-29T06:33:35;63.01;50.48;74.47;;
74496;Laerm;62979;55.720;37.606;2023-07-29T06:36:03;64.21;49.54;75.46;;
74496;Laerm;62979;55.720;37.606;2023-07-29T06:38:30;57.09;48.39;85.05;;
74496;Laerm;62979;55.720;37.606;2023-07-29T06:40:57;65.32;51.97;89.78;;
74496;Laerm;62979;55.720;37.606;2023-07-29T06:43:24;54.73;48.31;73.89;;
74496;Laerm;62979;55.720;37.606;2023-07-29T06:45:51;57.79;49.23;83.75;;
74496;Laerm;62979;55.720;37.606;2023-07-29T06:48:20;56.96;48.51;70.58;;
74496;Laerm;62979;55.720;37.606;2023-07-29T06:50:47;56.63;48.04;79.34;;
74496;Laerm;62979;55.720;37.606;2023-07-29T06:53:14;55.72;48.18;65.64;;
74496;Laerm;62979;55.720;37.606;2023-07-29T06:55:40;59.62;49.25;74.92;;
74496;Laerm;62979;55.720;37.606;2023-07-29T06:58:09;59.07;49.83;82.23;;
74496;Laerm;62979;55.720;37.606;2023-07-29T07:00:36;60.05;50.90;79.60;;
74496;Laerm;62979;55.720;37.606;2023-07-29T07:03:03;60.39;47.45;73.06;;
74496;Laerm;62979;55.720;37.606;2023-07-29T07:05:31;55.32;46.62;85.32;;
74496;Laerm;62979;55.720;37.606;2023-07-29T07:07:58;57.03;47.40;80.06;;
74496;Laerm;62979;55.720;37.606;2023-07-29T07:10:24;57.90;47.76;70.33;;
74496;Laerm;62979;55.720;37.606;2023-07-29T07:12:51;56.12;48.09;72.49;;
74496;Laerm;62979;55.720;37.606;2023-07-29T07:15:18;61.68;49.35;75.99;;
74496;Laerm;62979;55.720;37.606;2023-07-29T07:17:45;56.17;47.65;69.97;;
74496;Laerm;62979;55.720;37.606;2023-07-29T07:20:12;60.93;47.16;74.81;;
74496;Laerm;62979;55.720;37.606;2023-07-29T07:22:40;56.39;49.04;65.39;;
74496;Laerm;62979;55.720;37.606;2023-07-29T07:25:08;57.60;48.39;70.15;;
74496;Laerm;62979;55.720;37.606;2023-07-29T07:27:35;57.56;47.72;81.57;;
74496;Laerm;62979;55.720;37.606;2023-07-29T07:30:02;62.20;52.84;73.77;;
74496;Laerm;62979;55.720;37.606;2023-07-29T07:32:29;58.77;51.27;76.30;;
74496;Laerm;62979;55.720;37.606;2023-07-29T07:34:56;56.27;47.47;76.72;;
74496;Laerm;62979;55.720;37.606;2023-07-29T07:37:23;60.72;51.27;83.25;;
74496;Laerm;62979;55.720;37.606;2023-07-29T07:39:51;62.18;49.95;74.50;;
74496;Laerm;62979;55.720;37.606;2023-07-29T07:42:18;62.96;53.38;83.44;;
74496;Laerm;62979;55.720;37.606;2023-07-29T07:44:45;64.26;51.90;77.51;;
74496;Laerm;62979;55.720;37.606;2023-07-29T07:47:12;59.79;47.83;78.42;;
74496;Laerm;62979;55.720;37.606;2023-07-29T07:49:38;55.56;48.02;66.48;;
74496;Laerm;62979;55.720;37.606;2023-07-29T07:52:06;56.34;49.66;67.17;;
74496;Laerm;62979;55.720;37.606;2023-07-29T07:54:33;56.97;51.08;69.53;;
74496;Laerm;62979;55.720;37.606;2023-07-29T07:57:01;58.14;52.03;75.93;;
74496;Laerm;62979;55.720;37.606;2023-07-29T07:59:28;56.88;49.85;76.11;;
74496;Laerm;62979;55.720;37.606;2023-07-29T08:01:54;55.55;48.79;80.16;;
74496;Laerm;62979;55.720;37.606;2023-07-29T08:04:21;59.97;50.38;90.38;;
74496;Laerm;62979;55.720;37.606;2023-07-29T08:06:48;58.74;49.53;72.80;;
74496;Laerm;62979;55.720;37.606;2023-07-29T08:09:15;58.75;50.87;85.64;;
74496;Laerm;62979;55.720;37.606;2023-07-29T08:11:42;55.13;48.45;81.41;;
74496;Laerm;62979;55.720;37.606;2023-07-29T08:14:10;55.04;48.55;68.66;;
74496;Laerm;62979;55.720;37.606;2023-07-29T08:16:37;55.60;48.81;74.71;;
74496;Laerm;62979;55.720;37.606;2023-07-29T08:19:04;56.38;49.13;65.86;;
74496;Laerm;62979;55.720;37.606;2023-07-29T08:21:30;57.44;46.81;74.29;;
74496;Laerm;62979;55.720;37.606;2023-07-29T08:23:57;58.24;51.19;79.81;;
74496;Laerm;62979;55.720;37.606;2023-07-29T08:26:24;59.57;51.68;74.52;;
74496;Laerm;62979;55.720;37.606;2023-07-29T08:28:51;63.17;55.14;85.93;;
74496;Laerm;62979;55.720;37.606;2023-07-29T08:31:19;62.05;54.54;80.48;;
74496;Laerm;62979;55.720;37.606;2023-07-29T08:33:46;63.94;55.37;85.33;;
74496;Laerm;62979;55.720;37.606;2023-07-29T08:36:13;63.19;56.56;77.41;;
74496;Laerm;62979;55.720;37.606;2023-07-29T08:38:40;60.82;51.74;82.22;;
74496;Laerm;62979;55.720;37.606;2023-07-29T08:41:13;57.94;51.17;80.68;;
74496;Laerm;62979;55.720;37.606;2023-07-29T08:43:50;58.86;50.49;77.59;;
74496;Laerm;62979;55.720;37.606;2023-07-29T08:46:20;58.45;50.21;79.47;;
74496;Laerm;62979;55.720;37.606;2023-07-29T08:48:47;60.52;50.55;79.36;;
74496;Laerm;62979;55.720;37.606;2023-07-29T08:51:16;60.32;50.20;75.90;;
74496;Laerm;62979;55.720;37.606;2023-07-29T08:53:44;59.53;48.15;74.87;;
74496;Laerm;62979;55.720;37.606;2023-07-29T08:56:11;62.59;49.88;74.65;;
74496;Laerm;62979;55.720;37.606;2023-07-29T08:58:39;57.28;49.46;66.02;;
74496;Laerm;62979;55.720;37.606;2023-07-29T09:01:06;58.90;50.72;66.62;;
74496;Laerm;62979;55.720;37.606;2023-07-29T09:03:35;57.03;48.73;68.81;;
74496;Laerm;62979;55.720;37.606;2023-07-29T09:06:03;57.84;48.74;74.61;;
74496;Laerm;62979;55.720;37.606;2023-07-29T09:08:30;62.87;49.28;74.66;;
74496;Laerm;62979;55.720;37.606;2023-07-29T09:10:57;57.26;45.48;80.01;;
74496;Laerm;62979;55.720;37.606;2023-07-29T09:13:25;54.38;46.85;72.21;;
74496;Laerm;62979;55.720;37.606;2023-07-29T09:15:54;54.04;45.50;72.70;;
74496;Laerm;62979;55.720;37.606;2023-07-29T09:18:22;55.65;48.65;79.18;;
74496;Laerm;62979;55.720;37.606;2023-07-29T09:20:50;58.27;48.85;84.17;;
74496;Laerm;62979;55.720;37.606;2023-07-29T09:23:17;57.45;47.44;79.17;;
74496;Laerm;62979;55.720;37.606;2023-07-29T09:25:47;54.02;47.55;66.77;;
74496;Laerm;62979;55.720;37.606;2023-07-29T09:28:16;58.73;47.18;66.77;;
74496;Laerm;62979;55.720;37.606;2023-07-29T09:30:46;57.98;48.39;64.18;;
74496;Laerm;62979;55.720;37.606;2023-07-29T09:33:13;55.79;47.76;74.07;;
74496;Laerm;62979;55.720;37.606;2023-07-29T09:35:41;55.21;47.90;63.97;;
74496;Laerm;62979;55.720;37.606;2023-07-29T09:38:14;56.51;49.34;73.99;;
74496;Laerm;62979;55.720;37.606;2023-07-29T09:40:41;58.78;51.29;74.55;;
74496;Laerm;62979;55.720;37.606;2023-07-29T09:43:10;60.73;50.43;86.88;;
74496;Laerm;62979;55.720;37.606;2023-07-29T09:45:38;57.96;49.75;74.96;;
74496;Laerm;62979;55.720;37.606;2023-07-29T09:48:05;57.87;50.07;75.32;;
74496;Laerm;62979;55.720;37.606;2023-07-29T09:50:35;59.16;51.31;82.29;;
74496;Laerm;62979;55.720;37.606;2023-07-29T09:53:03;62.50;53.79;82.40;;
74496;Laerm;62979;55.720;37.606;2023-07-29T09:55:33;59.86;52.99;75.88;;
74496;Laerm;62979;55.720;37.606;2023-07-29T09:58:01;60.23;53.18;85.91;;
74496;Laerm;62979;55.720;37.606;2023-07-29T10:00:32;59.82;52.06;86.52;;
74496;Laerm;62979;55.720;37.606;2023-07-29T10:03:00;61.23;51.43;78.55;;
74496;Laerm;62979;55.720;37.606;2023-07-29T10:05:29;60.07;50.28;77.98;;
74496;Laerm;62979;55.720;37.606;2023-07-29T10:07:56;60.02;51.88;72.65;;
74496;Laerm;62979;55.720;37.606;2023-07-29T10:10:24;61.30;51.92;81.36;;
74496;Laerm;62979;55.720;37.606;2023-07-29T10:12:54;56.36;50.34;70.88;;
74496;Laerm;62979;55.720;37.606;2023-07-29T10:15:22;57.90;50.83;72.18;;
74496;Laerm;62979;55.720;37.606;2023-07-29T10:17:50;60.53;49.40;78.68;;
74496;Laerm;62979;55.720;37.606;2023-07-29T10:20:18;59.82;50.40;76.50;;
74496;Laerm;62979;55.720;37.606;2023-07-29T10:22:47;60.01;50.49;85.75;;
74496;Laerm;62979;55.720;37.606;2023-07-29T10:25:19;58.71;48.85;79.52;;
74496;Laerm;62979;55.720;37.606;2023-07-29T10:27:55;59.14;49.86;73.83;;
74496;Laerm;62979;55.720;37.606;2023-07-29T10:30:24;58.50;49.04;80.79;;
74496;Laerm;62979;55.720;37.606;2023-07-29T10:32:53;58.36;52.62;74.77;;
74496;Laerm;62979;55.720;37.606;2023-07-29T10:35:20;58.67;52.70;80.09;;
74496;Laerm;62979;55.720;37.606;2023-07-29T10:37:47;59.35;52.49;77.89;;
74496;Laerm;62979;55.720;37.606;2023-07-29T10:40:16;57.66;50.34;76.20;;
74496;Laerm;62979;55.720;37.606;2023-07-29T10:43:08;55.24;47.03;76.29;;
74496;Laerm;62979;55.720;37.606;2023-07-29T10:45:40;56.18;48.20;78.32;;
74496;Laerm;62979;55.720;37.606;2023-07-29T10:48:11;55.35;45.91;65.25;;
74496;Laerm;62979;55.720;37.606;2023-07-29T10:50:38;56.76;47.45;70.18;;
74496;Laerm;62979;55.720;37.606;2023-07-29T10:53:05;57.82;46.06;83.43;;
74496;Laerm;62979;55.720;37.606;2023-07-29T10:55:34;55.52;47.92;70.85;;
74496;Laerm;62979;55.720;37.606;2023-07-29T10:58:21;59.95;48.86;73.38;;
74496;Laerm;62979;55.720;37.606;2023-07-29T11:00:49;59.27;49.75;75.02;;
74496;Laerm;62979;55.720;37.606;2023-07-29T11:03:16;62.29;52.33;74.74;;
74496;Laerm;62979;55.720;37.606;2023-07-29T11:05:48;58.92;50.88;66.91;;
74496;Laerm;62979;55.720;37.606;2023-07-29T11:08:25;63.63;49.45;77.54;;
74496;Laerm;62979;55.720;37.606;2023-07-29T11:11:06;55.88;48.30;80.27;;
74496;Laerm;62979;55.720;37.606;2023-07-29T11:13:37;58.98;51.44;85.50;;
74496;Laerm;62979;55.720;37.606;2023-07-29T11:16:05;56.68;48.93;76.49;;
74496;Laerm;62979;55.720;37.606;2023-07-29T11:18:33;58.78;49.07;76.02;;
74496;Laerm;62979;55.720;37.606;2023-07-29T11:21:02;57.67;49.85;79.98;;
74496;Laerm;62979;55.720;37.606;2023-07-29T11:23:32;57.16;46.70;82.23;;
74496;Laerm;62979;55.720;37.606;2023-07-29T11:26:00;57.61;50.31;68.97;;
74496;Laerm;62979;55.720;37.606;2023-07-29T11:28:27;60.69;50.25;76.46;;
74496;Laerm;62979;55.720;37.606;2023-07-29T11:30:57;59.34;51.08;82.17;;
74496;Laerm;62979;55.720;37.606;2023-07-29T11:33:26;55.37;48.16;66.61;;
74496;Laerm;62979;55.720;37.606;2023-07-29T11:35:54;55.67;47.53;65.66;;
74496;Laerm;62979;55.720;37.606;2023-07-29T11:38:22;56.06;48.29;63.47;;
74496;Laerm;62979;55.720;37.606;2023-07-29T11:40:58;56.24;49.06;63.25;;
74496;Laerm;62979;55.720;37.606;2023-07-29T11:43:25;53.75;47.76;70.85;;
74496;Laerm;62979;55.720;37.606;2023-07-29T11:45:52;56.24;47.82;83.39;;
74496;Laerm;62979;55.720;37.606;2023-07-29T11:48:28;53.77;45.90;66.34;;
74496;Laerm;62979;55.720;37.606;2023-07-29T11:50:55;55.42;46.38;67.84;;
74496;Laerm;62979;55.720;37.606;2023-07-29T11:53:22;55.30;46.82;71.77;;
74496;Laerm;62979;55.720;37.606;2023-07-29T11:55:52;54.31;46.07;62.94;;
74496;Laerm;62979;55.720;37.606;2023-07-29T11:58:20;54.44;47.65;61.87;;
74496;Laerm;62979;55.720;37.606;2023-07-29T12:00:48;54.21;45.92;64.54;;
74496;Laerm;62979;55.720;37.606;2023-07-29T12:03:16;54.30;46.76;62.38;;
74496;Laerm;62979;55.720;37.606;2023-07-29T12:05:46;56.62;46.82;69.84;;
74496;Laerm;62979;55.720;37.606;2023-07-29T12:08:13;55.16;46.71;64.51;;
74496;Laerm;62979;55.720;37.606;2023-07-29T12:10:40;57.26;45.77;71.36;;
74496;Laerm;62979;55.720;37.606;2023-07-29T12:13:08;53.62;47.31;64.13;;
74496;Laerm;62979;55.720;37.606;2023-07-29T12:15:38;54.29;47.39;64.11;;
74496;Laerm;62979;55.720;37.606;2023-07-29T12:18:06;54.64;44.45;62.94;;
74496;Laerm;62979;55.720;37.606;2023-07-29T12:20:33;56.52;47.40;65.40;;
74496;Laerm;62979;55.720;37.606;2023-07-29T12:23:02;56.24;47.55;64.48;;
74496;Laerm;62979;55.720;37.606;2023-07-29T12:25:31;54.32;47.05;67.22;;
74496;Laerm;62979;55.720;37.606;2023-07-29T12:28:03;55.03;45.75;65.56;;
74496;Laerm;62979;55.720;37.606;2023-07-29T12:30:30;56.84;47.58;66.62;;
74496;Laerm;62979;55.720;37.606;2023-07-29T12:32:57;53.03;44.65;63.22;;
74496;Laerm;62979;55.720;37.606;2023-07-29T12:35:35;54.23;46.34;63.59;;
74496;Laerm;62979;55.720;37.606;2023-07-29T12:38:03;54.19;45.12;63.21;;
74496;Laerm;62979;55.720;37.606;2023-07-29T12:40:30;55.41;46.08;64.38;;
74496;Laerm;62979;55.720;37.606;2023-07-29T12:42:57;53.60;46.37;61.29;;
74496;Laerm;62979;55.720;37.606;2023-07-29T12:45:24;53.42;47.04;65.43;;
74496;Laerm;62979;55.720;37.606;2023-07-29T12:47:54;54.35;44.81;66.37;;
74496;Laerm;62979;55.720;37.606;2023-07-29T12:50:21;59.17;46.39;79.79;;
74496;Laerm;62979;55.720;37.606;2023-07-29T12:52:48;54.25;47.29;64.96;;
74496;Laerm;62979;55.720;37.606;2023-07-29T12:55:16;56.92;48.26;69.58;;
74496;Laerm;62979;55.720;37.606;2023-07-29T12:57:43;54.66;48.48;66.24;;
74496;Laerm;62979;55.720;37.606;2023-07-29T13:00:11;54.00;46.18;62.84;;
74496;Laerm;62979;55.720;37.606;2023-07-29T13:02:38;54.37;46.36;63.13;;
74496;Laerm;62979;55.720;37.606;2023-07-29T13:05:09;53.48;46.27;65.41;;
74496;Laerm;62979;55.720;37.606;2023-07-29T13:07:37;54.52;45.99;63.28;;
74496;Laerm;62979;55.720;37.606;2023-07-29T13:10:04;56.23;46.45;65.88;;
74496;Laerm;62979;55.720;37.606;2023-07-29T13:12:33;54.32;47.34;66.59;;
74496;Laerm;62979;55.720;37.606;2023-07-29T13:15:00;55.76;46.69;74.70;;
74496;Laerm;62979;55.720;37.606;2023-07-29T13:17:27;51.76;44.87;65.71;;
74496;Laerm;62979;55.720;37.606;2023-07-29T13:19:54;54.09;46.43;66.18;;
74496;Laerm;62979;55.720;37.606;2023-07-29T13:22:21;53.82;46.59;65.85;;
74496;Laerm;62979;55.720;37.606;2023-07-29T13:24:48;54.23;48.17;61.38;;
74496;Laerm;62979;55.720;37.606;2023-07-29T13:27:14;54.10;45.21;63.00;;
74496;Laerm;62979;55.720;37.606;2023-07-29T13:29:43;55.46;46.65;66.37;;
74496;Laerm;62979;55.720;37.606;2023-07-29T13:32:10;58.35;47.36;82.81;;
74496;Laerm;62979;55.720;37.606;2023-07-29T13:34:36;56.23;48.89;71.18;;
74496;Laerm;62979;55.720;37.606;2023-07-29T13:37:05;57.79;49.18;66.75;;